CST,Max TemperatureF,Mean TemperatureF,Min TemperatureF,Max Dew PointF,MeanDew PointF,Min DewpointF,Max Humidity, Mean Humidity, Min Humidity, Max Sea Level PressureIn, Mean Sea Level PressureIn, Min Sea Level PressureIn, Max VisibilityMiles, Mean VisibilityMiles, Min VisibilityMiles, Max Wind SpeedMPH, Mean Wind SpeedMPH, Max Gust SpeedMPH,PrecipitationIn, CloudCover, Events, WindDirDegrees
2012-1-1,55,47,39,34,29,21,70,52,28,30.57,30.46,30.24,10,10,10,25,13,34,0.00,0,,327
2012-1-2,51,42,32,28,22,16,87,55,26,30.78,30.68,30.62,10,10,10,14,9,17,0.00,0,,327
2012-1-3,55,40,26,32,26,21,87,61,33,30.60,30.42,30.19,10,10,10,21,6,29,0.00,0,,157
2012-1-4,59,46,33,34,30,27,81,60,36,30.33,30.26,30.18,10,10,10,13,7,17,0.00,0,,353
2012-1-5,64,47,30,36,31,28,93,65,30,30.35,30.27,30.13,10,10,10,10,4,,0.00,0,,227
2012-1-6,71,53,35,48,40,32,100,69,33,30.05,29.94,29.83,10,9,2,20,7,26,0.00,0,,168
2012-1-7,53,46,39,46,37,32,93,68,50,30.07,29.99,29.88,10,10,10,14,7,16,0.00,3,,348
2012-1-8,51,45,39,50,44,36,100,89,76,30.16,30.10,30.04,10,5,0,9,4,,0.00,7,Fog,350
2012-1-9,46,42,39,41,36,32,87,79,57,30.23,30.16,30.09,10,10,5,16,10,23,0.27,6,Rain,355
2012-1-10,44,42,39,43,39,36,100,91,87,30.07,29.93,29.85,10,7,2,23,11,20,0.75,8,Rain,322
2012-1-11,59,46,32,46,37,30,100,79,55,29.92,29.75,29.64,10,10,7,30,4,38,0.00,1,,255
2012-1-12,37,32,28,27,13,3,80,47,24,30.26,30.20,30.06,10,10,10,23,17,36,0.00,0,,308
2012-1-13,53,40,26,28,22,14,80,58,26,30.28,30.23,30.18,10,10,10,12,3,17,0.00,0,,202
2012-1-14,60,45,30,32,25,21,80,53,23,30.32,30.26,30.21,10,10,10,13,5,,0.00,0,,144
2012-1-15,64,48,32,45,34,30,93,69,37,30.27,30.19,30.06,10,10,10,23,7,29,0.00,0,,159
2012-1-16,71,62,53,61,56,50,100,84,68,30.06,29.97,29.85,10,10,10,24,15,29,0.00,2,,179
2012-1-17,59,46,33,57,34,21,100,67,39,30.34,30.16,29.89,10,10,10,26,12,36,0.00,0,,321
2012-1-18,50,36,23,32,24,19,86,65,43,30.39,30.25,30.07,10,10,10,12,5,,0.00,0,,136
2012-1-19,66,50,33,41,34,30,93,66,32,29.98,29.87,29.82,10,10,10,10,6,,0.00,0,,149
2012-1-20,77,56,35,48,39,34,100,64,22,29.88,29.75,29.66,10,10,4,16,5,25,0.00,0,,169
2012-1-21,46,38,30,32,28,21,87,70,49,30.13,30.05,29.93,10,10,10,16,10,22,0.00,0,,340
2012-1-22,73,55,37,55,39,19,100,71,14,29.82,29.70,29.59,10,4,0,36,13,44,0.00,5,Fog,180
2012-1-23,59,47,35,36,32,28,87,58,31,30.17,30.08,29.98,10,10,10,10,6,,0.00,0,,266
2012-1-24,64,50,35,46,34,30,87,62,34,30.10,30.04,29.92,10,10,7,20,5,25,0.07,3,Rain,103
2012-1-25,46,46,46,45,45,45,93,93,93,30.00,29.93,29.86,10,8,1,22,13,31,1.30,8,Rain,6
2012-1-26,55,47,39,45,40,36,100,77,47,30.02,29.95,29.87,10,8,2,15,10,20,0.15,4,Rain,299
2012-1-27,66,49,32,48,38,32,100,74,48,30.06,29.96,29.84,10,10,10,23,8,30,0.00,0,,173
2012-1-28,50,41,32,32,26,18,87,56,30,30.53,30.43,30.24,10,10,10,22,11,29,0.00,0,,348
2012-1-29,59,44,30,32,29,27,93,65,29,30.46,30.41,30.29,10,10,10,15,4,18,0.00,0,,177
2012-1-30,66,50,35,52,40,32,93,72,45,30.26,30.17,30.06,10,10,10,21,9,26,0.00,0,,161
2012-1-31,71,64,57,59,54,52,88,74,50,30.07,30.03,29.97,10,10,10,20,15,30,0.00,6,,181